Aviation Digital Data Service (ADDS)

Output produced by METARs form (1044 UTC 20 August 2014)
found at http://www.aviationweather.gov/adds/metars/
 
METAR text: KCMI 201017Z AUTO 28003KT 1/4SM R32R/1400V5500FT FG VV002 17/17 A2987 RMK AO2 T01720167
Conditions at: KCMI (CHAMPAIGN/URBANA, IL, US) observed 1017 UTC 20 August 2014
Temperature: 17.2°C (63°F)
Dewpoint: 16.7°C (62°F) [RH = 97%]
Pressure (altimeter): 29.87 inches Hg (1011.6 mb)
Winds: from the W (280 degrees) at 3 MPH (3 knots; 1.6 m/s)
Visibility: 0.25 miles (0.40 km)
Ceiling: indefinite ceiling with vertical visibility of 200 feet AGL
Clouds: obscured sky
Weather: FG  (fog)

METAR text: KCMI 200953Z AUTO 00000KT 1/4SM R32R/1000V2200FT FG VV002 17/17 A2986 RMK AO2 SLP107 T01670167
Conditions at: KCMI (CHAMPAIGN/URBANA, IL, US) observed 0953 UTC 20 August 2014
Temperature: 16.7°C (62°F)
Dewpoint: 16.7°C (62°F) [RH = 100%]
Pressure (altimeter): 29.86 inches Hg (1011.3 mb)
[Sea-level pressure: 1010.7 mb]
Winds: calm
Visibility: 0.25 miles (0.40 km)
Ceiling: indefinite ceiling with vertical visibility of 200 feet AGL
Clouds: obscured sky
Weather: FG  (fog)

METAR text: KCMI 200937Z AUTO 00000KT 1/4SM R32R/1000V2200FT FG VV001 17/17 A2986 RMK AO2 T01670167
Conditions at: KCMI (CHAMPAIGN/URBANA, IL, US) observed 0937 UTC 20 August 2014
Temperature: 16.7°C (62°F)
Dewpoint: 16.7°C (62°F) [RH = 100%]
Pressure (altimeter): 29.86 inches Hg (1011.3 mb)
Winds: calm
Visibility: 0.25 miles (0.40 km)
Ceiling: indefinite ceiling with vertical visibility of 100 feet AGL
Clouds: obscured sky
Weather: FG  (fog)

METAR text: KCMI 200930Z AUTO 25003KT 1/4SM R32R/1000V1600FT FG VV002 17/17 A2986 RMK AO2 T01670167
Conditions at: KCMI (CHAMPAIGN/URBANA, IL, US) observed 0930 UTC 20 August 2014
Temperature: 16.7°C (62°F)
Dewpoint: 16.7°C (62°F) [RH = 100%]
Pressure (altimeter): 29.86 inches Hg (1011.3 mb)
Winds: from the WSW (250 degrees) at 3 MPH (3 knots; 1.6 m/s)
Visibility: 0.25 miles (0.40 km)
Ceiling: indefinite ceiling with vertical visibility of 200 feet AGL
Clouds: obscured sky
Weather: FG  (fog)

METAR text: KCMI 200919Z AUTO 00000KT 1/4SM R32R/0700V1000FT FG VV001 17/17 A2986 RMK AO2 T01720167
Conditions at: KCMI (CHAMPAIGN/URBANA, IL, US) observed 0919 UTC 20 August 2014
Temperature: 17.2°C (63°F)
Dewpoint: 16.7°C (62°F) [RH = 97%]
Pressure (altimeter): 29.86 inches Hg (1011.3 mb)
Winds: calm
Visibility: 0.25 miles (0.40 km)
Ceiling: indefinite ceiling with vertical visibility of 100 feet AGL
Clouds: obscured sky
Weather: FG  (fog)

METAR text: KCMI 200909Z AUTO 00000KT 1/4SM R32R/0800V1400FT FG VV002 17/17 A2986 RMK AO2 T01670167
Conditions at: KCMI (CHAMPAIGN/URBANA, IL, US) observed 0909 UTC 20 August 2014
Temperature: 16.7°C (62°F)
Dewpoint: 16.7°C (62°F) [RH = 100%]
Pressure (altimeter): 29.86 inches Hg (1011.3 mb)
Winds: calm
Visibility: 0.25 miles (0.40 km)
Ceiling: indefinite ceiling with vertical visibility of 200 feet AGL
Clouds: obscured sky
Weather: FG  (fog)

METAR text: KCMI 200853Z AUTO 00000KT 1/4SM R32R/2400VP6000FT FG VV002 18/17 A2986 RMK AO2 SLP105 T01780172 51005
Conditions at: KCMI (CHAMPAIGN/URBANA, IL, US) observed 0853 UTC 20 August 2014
Temperature: 17.8°C (64°F)
Dewpoint: 17.2°C (63°F) [RH = 96%]
Pressure (altimeter): 29.86 inches Hg (1011.3 mb)
[Sea-level pressure: 1010.5 mb]
Winds: calm
Visibility: 0.25 miles (0.40 km)
Ceiling: indefinite ceiling with vertical visibility of 200 feet AGL
Clouds: obscured sky
Weather: FG  (fog)

METAR text: KCMI 200849Z AUTO 00000KT 1/4SM R32R/P6000FT FG VV002 18/18 A2986 RMK AO2
Conditions at: KCMI (CHAMPAIGN/URBANA, IL, US) observed 0849 UTC 20 August 2014
Temperature: 18.0°C (64°F)
Dewpoint: 18.0°C (64°F) [RH = 100%]
Pressure (altimeter): 29.86 inches Hg (1011.3 mb)
Winds: calm
Visibility: 0.25 miles (0.40 km)
Ceiling: indefinite ceiling with vertical visibility of 200 feet AGL
Clouds: obscured sky
Weather: FG  (fog)

Forecast for: KCMI (CHAMPAIGN/URBANA, IL, US)
Text: KCMI 200916Z 2009/2106 27003KT 1/4SM FG OVC002
Forecast period: 0900 to 1400 UTC 20 August 2014
Forecast type: FROM: standard forecast or significant change
Winds: from the W (270 degrees) at 3 MPH (3 knots; 1.6 m/s)
Visibility: 0.25 miles (0.40 km)
Ceiling: 200 feet AGL
Clouds: overcast cloud deck at 200 feet AGL
Weather: FG  (fog)
Text: TEMPO 2009/2012 1SM BR SCT001
Forecast period: 0900 to 1200 UTC 20 August 2014
Forecast type: TEMPORARY: The following changes expected for less than half the time period
Visibility: 1.00 miles (1.61 km)
Clouds: scattered clouds at 100 feet AGL
Weather: BR  (mist)
Text: FM201400 26008KT P6SM SCT035 BKN120
Forecast period: 1400 UTC 20 August 2014 to 0000 UTC 21 August 2014
Forecast type: FROM: standard forecast or significant change
Winds: from the W (260 degrees) at 9 MPH (8 knots; 4.2 m/s)
Visibility: 6 or more miles (10+ km)
Ceiling: 12000 feet AGL
Clouds: scattered clouds at 3500 feet AGL
broken clouds at 12000 feet AGL
Weather: no significant weather forecast for this period
Text: FM210000 22003KT P6SM VCTS SCT035CB BKN150
Forecast period: 0000 to 0600 UTC 21 August 2014
Forecast type: FROM: standard forecast or significant change
Winds: from the SW (220 degrees) at 3 MPH (3 knots; 1.6 m/s)
Visibility: 6 or more miles (10+ km)
Ceiling: 15000 feet AGL
Clouds: scattered clouds at 3500 feet AGL
broken clouds at 15000 feet AGL
Weather: VCTS  (thunderstorm in vicinity)